createdAt,value
2017-11-09T00:01:14.696Z,8.50
2017-11-09T00:03:48.036Z,8.70
2017-11-09T00:06:19.527Z,9.57
2017-11-09T00:08:47.021Z,9.00
2017-11-09T00:11:14.647Z,8.90
2017-11-09T00:13:42.967Z,9.00
2017-11-09T00:16:10.461Z,8.43
2017-11-09T00:18:38.874Z,8.00
2017-11-09T00:21:06.368Z,8.10
2017-11-09T00:23:33.865Z,8.10
2017-11-09T00:26:01.830Z,8.87
2017-11-09T00:28:30.460Z,7.73
2017-11-09T00:30:57.969Z,8.93
2017-11-09T00:33:25.861Z,8.90
2017-11-09T00:35:54.835Z,7.70
2017-11-09T00:38:22.377Z,9.23
2017-11-09T00:40:50.636Z,8.37
2017-11-09T00:43:18.168Z,8.50
2017-11-09T00:45:46.989Z,9.30
2017-11-09T00:48:14.485Z,8.53
2017-11-09T00:50:41.982Z,8.00
2017-11-09T00:53:10.248Z,8.60
2017-11-09T00:55:39.252Z,9.07
2017-11-09T00:58:06.747Z,9.03
2017-11-09T01:00:35.013Z,9.00
2017-11-09T01:03:03.660Z,8.70
2017-11-09T01:05:31.937Z,8.93
2017-11-09T01:07:59.437Z,8.80
2017-11-09T01:10:28.450Z,8.63
2017-11-09T01:12:55.951Z,9.40
2017-11-09T01:15:23.603Z,8.10
2017-11-09T01:17:51.103Z,8.80
2017-11-09T01:20:19.772Z,8.50
2017-11-09T01:22:47.399Z,9.70
2017-11-09T01:25:14.891Z,8.60
2017-11-09T01:27:42.388Z,8.37
2017-11-09T01:30:10.648Z,10.13
2017-11-09T01:32:38.147Z,9.07
2017-11-09T01:35:06.425Z,10.00
2017-11-09T01:37:33.930Z,10.53
2017-11-09T01:40:01.424Z,9.63
2017-11-09T01:42:28.923Z,9.27
2017-11-09T01:44:56.429Z,10.00
2017-11-09T01:47:23.941Z,9.70
2017-11-09T01:49:52.961Z,10.40
2017-11-09T01:52:21.253Z,9.23
2017-11-09T01:54:48.758Z,9.67
2017-11-09T01:57:16.700Z,10.07
2017-11-09T01:59:44.200Z,9.60
2017-11-09T02:02:12.600Z,10.40
2017-11-09T02:04:40.493Z,9.87
2017-11-09T02:07:08.413Z,9.90
2017-11-09T02:09:36.825Z,9.50
2017-11-09T02:12:05.092Z,9.27
2017-11-09T02:14:32.592Z,10.13
2017-11-09T02:17:00.084Z,9.97
2017-11-09T02:19:28.345Z,9.40
2017-11-09T02:21:55.844Z,10.33
2017-11-09T02:24:23.376Z,10.60
2017-11-09T02:26:50.873Z,9.20
2017-11-09T02:29:18.396Z,9.93
2017-11-09T02:31:45.936Z,11.60
2017-11-09T02:34:15.155Z,10.37
2017-11-09T02:36:42.688Z,10.70
2017-11-09T02:39:10.189Z,8.90
2017-11-09T02:41:37.699Z,9.70
2017-11-09T02:44:05.200Z,9.40
2017-11-09T02:46:32.706Z,9.77
2017-11-09T02:49:00.980Z,10.50
2017-11-09T02:51:28.479Z,11.30
2017-11-09T02:53:55.979Z,10.13
2017-11-09T02:56:23.478Z,9.87
2017-11-09T02:58:51.017Z,10.00
2017-11-09T03:01:18.557Z,9.73
2017-11-09T03:03:47.432Z,9.50
2017-11-09T03:06:15.836Z,9.70
2017-11-09T03:08:43.338Z,9.57
2017-11-09T03:11:11.608Z,9.07
2017-11-09T03:13:40.249Z,10.03
2017-11-09T03:16:07.888Z,10.30
2017-11-09T03:18:36.152Z,9.80
2017-11-09T03:21:03.652Z,9.97
2017-11-09T03:23:31.276Z,9.00
2017-11-09T03:25:58.931Z,10.43
2017-11-09T03:28:26.444Z,10.70
2017-11-09T03:30:53.941Z,9.27
2017-11-09T03:33:21.464Z,10.20
2017-11-09T03:35:50.593Z,9.93
2017-11-09T03:38:18.129Z,9.47
2017-11-09T03:40:46.400Z,9.83
2017-11-09T03:43:14.799Z,9.60
2017-11-09T03:45:42.296Z,9.70
2017-11-09T03:48:09.914Z,9.50
2017-11-09T03:50:37.574Z,9.33
2017-11-09T03:53:05.224Z,10.30
2017-11-09T03:55:32.841Z,9.20
2017-11-09T03:58:00.343Z,10.63
2017-11-09T04:00:29.512Z,8.70
2017-11-09T04:02:57.771Z,10.00
2017-11-09T04:05:25.317Z,10.57
2017-11-09T04:07:54.459Z,8.03
2017-11-09T04:10:21.993Z,8.33
2017-11-09T04:12:50.265Z,8.57
2017-11-09T04:15:18.159Z,9.33
2017-11-09T04:17:45.664Z,10.07
2017-11-09T04:20:13.188Z,9.23
2017-11-09T04:22:41.237Z,11.30
2017-11-09T04:25:08.769Z,9.80
2017-11-09T04:27:36.268Z,9.77
2017-11-09T04:30:03.792Z,9.87
2017-11-09T04:32:32.079Z,11.07
2017-11-09T04:35:00.545Z,9.90
2017-11-09T04:37:28.488Z,9.53
2017-11-09T04:39:56.889Z,10.47
2017-11-09T04:42:24.803Z,9.83
2017-11-09T04:44:52.417Z,10.30
2017-11-09T04:47:19.907Z,9.10
2017-11-09T04:49:47.524Z,9.40
2017-11-09T04:52:15.041Z,10.10
2017-11-09T04:54:42.536Z,9.57
2017-11-09T04:57:10.425Z,10.63
2017-11-09T04:59:38.048Z,10.83
2017-11-09T05:02:05.617Z,10.27
2017-11-09T05:04:33.141Z,8.90
2017-11-09T05:07:01.415Z,9.20
2017-11-09T05:09:30.469Z,10.73
2017-11-09T05:11:58.085Z,9.90
2017-11-09T05:14:25.585Z,9.93
2017-11-09T05:16:53.847Z,10.10
2017-11-09T05:19:21.473Z,10.53
2017-11-09T05:21:48.981Z,10.13
2017-11-09T05:24:16.483Z,9.70
2017-11-09T05:26:45.120Z,9.60
2017-11-09T05:29:12.621Z,8.43
2017-11-09T05:31:40.508Z,8.87
2017-11-09T05:34:08.013Z,10.40
2017-11-09T05:36:36.104Z,8.83
2017-11-09T05:39:04.373Z,8.20
2017-11-09T05:41:32.288Z,8.70
2017-11-09T05:43:59.788Z,8.00
2017-11-09T05:46:28.445Z,7.70
2017-11-09T05:48:56.037Z,8.70
2017-11-09T05:51:23.534Z,7.37
2017-11-09T05:53:51.032Z,7.50
2017-11-09T05:56:19.432Z,9.23
2017-11-09T05:58:47.693Z,9.50
2017-11-09T06:01:15.192Z,8.77
2017-11-09T06:03:42.689Z,9.07
2017-11-09T06:06:11.492Z,8.50
2017-11-09T06:08:39.152Z,8.90
2017-11-09T06:11:06.653Z,9.40
2017-11-09T06:13:34.303Z,10.20
2017-11-09T06:16:01.808Z,9.03
2017-11-09T06:18:30.448Z,8.63
2017-11-09T06:20:58.075Z,9.00
2017-11-09T06:23:26.716Z,8.63
2017-11-09T06:25:54.209Z,9.40
2017-11-09T06:28:23.228Z,10.00
2017-11-09T06:30:50.720Z,9.03
2017-11-09T06:33:18.224Z,10.60
2017-11-09T06:35:45.727Z,10.10
2017-11-09T06:38:13.989Z,9.40
2017-11-09T06:40:41.504Z,10.67
2017-11-09T06:43:09.001Z,9.43
2017-11-09T06:45:36.536Z,9.73
2017-11-09T06:48:05.399Z,10.10
2017-11-09T06:50:32.942Z,11.30
2017-11-09T06:53:00.502Z,11.13
2017-11-09T06:55:29.589Z,10.50
2017-11-09T06:57:57.088Z,9.57
2017-11-09T07:00:24.982Z,9.10
2017-11-09T07:02:52.484Z,9.17
2017-11-09T07:05:19.988Z,9.90
2017-11-09T07:07:47.678Z,10.63
2017-11-09T07:10:15.181Z,10.73
2017-11-09T07:12:42.708Z,11.47
2017-11-09T07:15:10.209Z,11.40
2017-11-09T07:17:38.125Z,11.87
2017-11-09T07:20:06.401Z,11.90
2017-11-09T07:22:34.444Z,10.73
2017-11-09T07:25:01.952Z,11.13
2017-11-09T07:27:29.487Z,11.20
2017-11-09T07:29:56.990Z,11.33
2017-11-09T07:32:24.485Z,12.00
2017-11-09T07:34:51.992Z,11.07
2017-11-09T07:37:20.252Z,10.70
2017-11-09T07:39:47.753Z,12.10
2017-11-09T07:42:15.256Z,11.67
2017-11-09T07:44:44.269Z,11.80
2017-11-09T07:47:12.538Z,11.87
2017-11-09T07:49:40.841Z,11.87
2017-11-09T07:52:08.344Z,11.63
2017-11-09T07:54:36.256Z,11.70
2017-11-09T07:57:03.760Z,12.13
2017-11-09T07:59:31.372Z,11.67
2017-11-09T08:01:58.976Z,11.77
2017-11-09T08:04:26.537Z,12.57
2017-11-09T08:06:54.041Z,11.67
2017-11-09T08:09:21.557Z,10.80
2017-11-09T08:11:49.665Z,12.70
2017-11-09T08:14:17.163Z,12.50
2017-11-09T08:16:45.437Z,11.70
2017-11-09T08:19:12.940Z,12.70
2017-11-09T08:21:41.583Z,11.67
2017-11-09T08:24:10.955Z,13.50
2017-11-09T08:26:40.936Z,13.80
2017-11-09T08:29:09.288Z,11.83
2017-11-09T08:31:41.124Z,12.17
2017-11-09T08:34:08.625Z,12.83
2017-11-09T08:36:36.292Z,11.77
2017-11-09T08:39:03.794Z,12.07
2017-11-09T08:41:31.328Z,10.50
2017-11-09T08:43:59.299Z,12.37
2017-11-09T08:46:27.616Z,12.83
2017-11-09T08:48:56.248Z,11.87
2017-11-09T08:51:24.286Z,11.80
2017-11-09T08:53:51.795Z,13.30
2017-11-09T08:56:19.297Z,13.40
2017-11-09T08:58:48.204Z,11.10
2017-11-09T09:01:15.695Z,12.03
2017-11-09T09:03:43.213Z,12.53
2017-11-09T09:06:10.944Z,11.20
2017-11-09T09:08:38.574Z,13.13
2017-11-09T09:11:06.836Z,11.57
2017-11-09T09:13:35.823Z,12.77
2017-11-09T09:16:03.312Z,12.63
2017-11-09T09:18:30.812Z,10.90
2017-11-09T09:20:58.312Z,10.50
2017-11-09T09:23:26.952Z,11.37
2017-11-09T09:29:09.189Z,11.33
2017-11-09T09:31:36.693Z,10.80
2017-11-09T09:34:07.796Z,11.90
2017-11-09T09:36:40.532Z,10.50
2017-11-09T09:39:15.609Z,9.93
2017-11-09T09:41:43.892Z,11.17
2017-11-09T09:44:12.164Z,11.40
2017-11-09T09:46:40.653Z,10.40
2017-11-09T09:49:08.156Z,10.60
2017-11-09T09:51:35.652Z,8.20
2017-11-09T09:54:03.161Z,9.50
2017-11-09T09:56:30.803Z,10.10
2017-11-09T09:58:58.458Z,9.67
2017-11-09T10:01:26.374Z,10.53
2017-11-09T10:03:53.873Z,11.17
2017-11-09T10:06:21.396Z,10.30
2017-11-09T10:08:48.897Z,11.60
2017-11-09T10:11:16.444Z,11.70
2017-11-09T10:13:45.084Z,10.87
2017-11-09T10:16:13.721Z,12.23
2017-11-09T10:18:42.365Z,10.40
2017-11-09T10:21:10.404Z,11.10
2017-11-09T10:23:39.433Z,10.93
2017-11-09T10:26:06.953Z,11.70
2017-11-09T10:28:35.629Z,11.97
2017-11-09T10:31:04.646Z,10.30
2017-11-09T10:33:32.202Z,10.57
2017-11-09T10:35:59.700Z,9.73
2017-11-09T10:38:27.222Z,10.00
2017-11-09T10:40:54.788Z,8.50
2017-11-09T10:43:22.304Z,9.13
2017-11-09T10:45:50.303Z,8.10
2017-11-09T10:48:17.803Z,9.10
2017-11-09T10:50:45.302Z,9.67
2017-11-09T10:53:13.568Z,8.73
2017-11-09T10:55:41.965Z,7.27
2017-11-09T10:58:09.461Z,7.60
2017-11-09T11:00:42.755Z,7.47
2017-11-09T11:03:10.268Z,7.07
2017-11-09T11:05:37.784Z,8.40
2017-11-09T11:08:05.292Z,8.30
2017-11-09T11:10:34.320Z,7.90
2017-11-09T11:13:01.929Z,8.90
2017-11-09T11:15:29.616Z,6.43
2017-11-09T11:17:57.241Z,6.70
2017-11-09T11:20:24.844Z,5.77
2017-11-09T11:22:52.341Z,6.20
2017-11-09T11:25:20.599Z,7.20
2017-11-09T11:27:48.100Z,5.60
2017-11-09T11:30:15.592Z,6.60
2017-11-09T11:32:43.505Z,7.87
2017-11-09T11:35:11.001Z,8.30
2017-11-09T11:37:40.060Z,8.60
2017-11-09T11:40:07.600Z,8.30
2017-11-09T11:42:35.262Z,8.70
2017-11-09T11:45:02.881Z,7.43
2017-11-09T11:47:34.192Z,8.90
2017-11-09T11:50:02.133Z,8.57
2017-11-09T11:52:29.794Z,8.03
2017-11-09T11:54:57.444Z,8.20
2017-11-09T11:57:24.945Z,8.57
2017-11-09T11:59:52.570Z,8.90
2017-11-09T12:02:20.073Z,9.30
2017-11-09T12:04:51.902Z,8.60
2017-11-09T12:07:19.396Z,9.23
2017-11-09T12:09:47.504Z,9.57
2017-11-09T12:12:15.006Z,7.97
2017-11-09T12:14:42.505Z,8.20
2017-11-09T12:17:10.009Z,8.97
2017-11-09T12:19:37.501Z,7.03
2017-11-09T12:22:05.793Z,9.80
2017-11-09T12:24:33.288Z,10.33
2017-11-09T12:27:00.784Z,9.33
2017-11-09T12:29:28.293Z,9.90
2017-11-09T12:31:56.232Z,9.80
2017-11-09T12:34:24.138Z,8.20
2017-11-09T12:36:51.655Z,7.93
2017-11-09T12:39:19.169Z,9.37
2017-11-09T12:41:46.717Z,8.40
2017-11-09T12:44:15.359Z,8.73
2017-11-09T12:46:42.860Z,8.83
2017-11-09T12:49:11.129Z,8.17
2017-11-09T12:51:39.045Z,9.07
2017-11-09T12:54:06.589Z,7.77
2017-11-09T12:56:34.644Z,8.80
2017-11-09T12:59:02.163Z,6.53
2017-11-09T13:01:29.660Z,8.23
2017-11-09T13:03:58.316Z,9.13
2017-11-09T13:06:26.576Z,7.97
2017-11-09T13:08:55.603Z,7.40
2017-11-09T13:11:23.109Z,8.10
2017-11-09T13:13:51.037Z,7.20
2017-11-09T13:16:18.533Z,7.87
2017-11-09T13:18:47.420Z,6.30
2017-11-09T13:21:14.921Z,7.43
2017-11-09T13:23:43.938Z,7.60
2017-11-09T13:26:12.577Z,8.60
2017-11-09T13:28:41.435Z,7.37
2017-11-09T13:31:08.928Z,7.93
2017-11-09T13:33:39.016Z,7.40
2017-11-09T13:36:08.025Z,8.17
2017-11-09T13:38:36.292Z,7.17
2017-11-09T13:41:04.588Z,7.20
2017-11-09T13:43:32.093Z,8.90
2017-11-09T13:45:59.697Z,7.23
2017-11-09T13:48:27.192Z,7.60
2017-11-09T13:50:54.721Z,8.53
2017-11-09T13:53:22.268Z,7.70
2017-11-09T13:55:49.768Z,8.33
2017-11-09T13:58:17.788Z,8.63
2017-11-09T14:00:45.676Z,9.30
2017-11-09T14:03:13.936Z,7.97
2017-11-09T14:05:41.433Z,7.03
2017-11-09T14:08:09.032Z,7.00
2017-11-09T14:10:36.537Z,7.37
2017-11-09T14:13:04.445Z,7.07
2017-11-09T14:15:31.949Z,7.47
2017-11-09T14:17:59.461Z,7.20
2017-11-09T14:20:26.952Z,6.87
2017-11-09T14:22:54.468Z,8.83
2017-11-09T14:25:21.961Z,8.83
2017-11-09T14:27:49.481Z,8.80
2017-11-09T14:30:17.145Z,9.17
2017-11-09T14:32:44.661Z,8.70
2017-11-09T14:35:12.164Z,8.20
2017-11-09T14:37:39.933Z,8.27
2017-11-09T14:40:08.393Z,8.80
2017-11-09T14:42:36.316Z,9.20
2017-11-09T14:45:03.824Z,8.63
2017-11-09T14:47:31.349Z,7.77
2017-11-09T14:49:58.852Z,8.90
2017-11-09T14:52:26.459Z,8.73
2017-11-09T14:54:54.719Z,7.77
2017-11-09T14:57:22.417Z,8.50
2017-11-09T14:59:49.914Z,8.13
2017-11-09T15:02:17.437Z,9.50
2017-11-09T15:04:46.205Z,8.03
2017-11-09T15:07:13.704Z,7.33
2017-11-09T15:09:41.967Z,8.33
2017-11-09T15:12:09.465Z,7.70
2017-11-09T15:14:38.290Z,9.83
2017-11-09T15:17:05.792Z,9.23
2017-11-09T15:19:34.433Z,7.30
2017-11-09T15:22:01.932Z,8.10
2017-11-09T15:24:29.644Z,8.87
2017-11-09T15:26:57.139Z,9.60
2017-11-09T15:29:24.639Z,8.20
2017-11-09T15:31:52.896Z,8.43
2017-11-09T15:34:21.194Z,8.60
2017-11-09T15:36:49.904Z,8.50
2017-11-09T15:39:17.415Z,9.17
2017-11-09T15:41:44.981Z,8.10
2017-11-09T15:44:12.501Z,8.47
2017-11-09T15:46:40.005Z,8.13
2017-11-09T15:49:07.540Z,9.00
2017-11-09T15:51:35.225Z,7.30
2017-11-09T15:54:02.746Z,8.50
2017-11-09T15:56:31.021Z,10.13
2017-11-09T15:58:58.517Z,9.43
2017-11-09T16:01:26.015Z,10.73
2017-11-09T16:03:53.707Z,9.27
2017-11-09T16:06:21.223Z,8.70
2017-11-09T16:08:50.157Z,8.23
2017-11-09T16:11:17.700Z,8.10
2017-11-09T16:13:45.840Z,8.43
2017-11-09T16:16:13.901Z,9.43
2017-11-09T16:18:42.608Z,8.50
2017-11-09T16:21:11.785Z,8.90
2017-11-09T16:23:39.327Z,10.10
2017-11-09T16:26:06.934Z,9.00
2017-11-09T16:28:37.455Z,9.27
2017-11-09T16:31:05.456Z,8.67
2017-11-09T16:33:33.748Z,8.83
2017-11-09T16:36:01.295Z,9.10
2017-11-09T16:38:28.909Z,9.17
2017-11-09T16:40:56.404Z,9.63
2017-11-09T16:43:24.380Z,10.50
2017-11-09T16:45:53.385Z,10.03
2017-11-09T16:48:21.277Z,11.97
2017-11-09T16:50:48.780Z,14.83
2017-11-09T16:53:17.128Z,16.97
2017-11-09T16:55:44.777Z,16.47
2017-11-09T16:58:12.312Z,16.40
2017-11-09T17:00:40.969Z,14.17
2017-11-09T17:03:08.574Z,12.67
2017-11-09T17:05:36.869Z,10.87
2017-11-09T17:08:04.912Z,10.80
2017-11-09T17:10:32.448Z,10.80
2017-11-09T17:13:01.210Z,11.00
2017-11-09T17:15:28.741Z,10.07
2017-11-09T17:17:56.305Z,11.17
2017-11-09T17:20:23.813Z,10.30
2017-11-09T17:22:51.311Z,10.97
2017-11-09T17:25:19.002Z,9.67
2017-11-09T17:27:47.296Z,10.60
2017-11-09T17:30:15.188Z,9.10
2017-11-09T17:32:42.712Z,9.00
2017-11-09T17:35:10.621Z,10.27
2017-11-09T17:37:38.536Z,11.87
2017-11-09T17:40:06.833Z,10.03
2017-11-09T17:42:40.108Z,8.60
2017-11-09T17:45:07.673Z,9.13
2017-11-09T17:47:36.312Z,11.23
2017-11-09T17:50:04.586Z,8.83
2017-11-09T17:52:32.116Z,11.27
2017-11-09T17:55:00.009Z,10.23
2017-11-09T17:57:27.973Z,10.33
2017-11-09T18:00:01.855Z,10.13
2017-11-09T18:02:29.352Z,10.17
2017-11-09T18:04:56.851Z,11.27
2017-11-09T18:07:24.348Z,11.03
2017-11-09T18:09:53.441Z,11.83
2017-11-09T18:12:21.704Z,11.63
2017-11-09T18:14:49.231Z,10.67
2017-11-09T18:17:18.258Z,11.13
2017-11-09T18:19:45.784Z,11.90
2017-11-09T18:22:14.055Z,11.53
2017-11-09T18:24:42.733Z,11.50
2017-11-09T18:27:10.264Z,10.67
2017-11-09T18:29:37.773Z,10.40
2017-11-09T18:32:05.276Z,12.73
2017-11-09T18:34:32.817Z,10.90
2017-11-09T18:37:00.323Z,10.33
2017-11-09T18:39:27.939Z,10.37
2017-11-09T18:41:55.436Z,12.40
2017-11-09T18:44:22.939Z,12.50
2017-11-09T18:46:50.861Z,14.37
2017-11-09T18:49:18.359Z,14.33
2017-11-09T18:51:46.033Z,12.43
2017-11-09T18:54:14.668Z,11.83
2017-11-09T18:56:43.697Z,11.40
2017-11-09T18:59:17.442Z,9.77
2017-11-09T19:01:44.957Z,9.50
2017-11-09T19:04:12.458Z,11.40
2017-11-09T19:06:41.505Z,9.97
2017-11-09T19:09:09.078Z,10.00
2017-11-09T19:11:36.660Z,10.33
2017-11-09T19:14:04.548Z,9.60
2017-11-09T19:16:32.825Z,12.33
2017-11-09T19:19:00.733Z,11.93
2017-11-09T19:21:28.240Z,17.77
2017-11-09T19:23:57.278Z,16.30
2017-11-09T19:26:25.552Z,12.80
2017-11-09T19:28:53.493Z,11.20
2017-11-09T19:31:21.003Z,10.17
2017-11-09T19:33:49.674Z,9.80
2017-11-09T19:36:17.621Z,10.10
2017-11-09T19:38:45.917Z,15.93
2017-11-09T19:41:13.431Z,11.23
2017-11-09T19:43:40.968Z,9.77
2017-11-09T19:46:08.870Z,9.20
2017-11-09T19:48:36.472Z,10.80
2017-11-09T19:51:04.394Z,9.80
2017-11-09T19:53:31.901Z,8.73
2017-11-09T19:56:00.210Z,8.20
2017-11-09T19:58:28.116Z,9.07
2017-11-09T20:00:55.828Z,8.73
2017-11-09T20:03:23.502Z,8.40
2017-11-09T20:05:51.783Z,6.97
2017-11-09T20:08:20.050Z,7.90
2017-11-09T20:10:47.710Z,8.40
2017-11-09T20:13:15.215Z,7.93
2017-11-09T20:15:43.874Z,8.30
2017-11-09T20:18:12.158Z,9.50
2017-11-09T20:20:40.430Z,8.90
2017-11-09T20:23:08.716Z,7.80
2017-11-09T20:25:36.719Z,9.87
2017-11-09T20:28:04.383Z,9.47
2017-11-09T20:30:32.854Z,8.67
2017-11-09T20:33:00.377Z,8.80
2017-11-09T20:35:27.876Z,9.17
2017-11-09T20:38:00.352Z,9.17
2017-11-09T20:40:27.846Z,9.93
2017-11-09T20:42:55.373Z,9.83
2017-11-09T20:45:22.876Z,9.20
2017-11-09T20:47:50.565Z,8.90
2017-11-09T20:50:20.348Z,9.20
2017-11-09T20:52:48.975Z,8.80
2017-11-09T20:55:16.914Z,9.77
2017-11-09T20:57:45.177Z,9.27
2017-11-09T21:00:12.750Z,9.80
2017-11-09T21:02:40.274Z,8.57
2017-11-09T21:05:08.572Z,9.40
2017-11-09T21:07:36.076Z,7.93
2017-11-09T21:10:03.598Z,8.87
2017-11-09T21:12:31.498Z,8.10
2017-11-09T21:14:59.413Z,8.90
2017-11-09T21:17:27.684Z,8.20
2017-11-09T21:19:55.601Z,8.93
2017-11-09T21:22:23.138Z,9.13
2017-11-09T21:24:50.671Z,8.57
2017-11-09T21:27:18.176Z,10.30
2017-11-09T21:29:45.688Z,8.40
2017-11-09T21:32:13.581Z,9.00
2017-11-09T21:34:41.100Z,8.37
2017-11-09T21:37:09.117Z,8.30
2017-11-09T21:39:36.636Z,8.03
2017-11-09T21:42:04.897Z,9.27
2017-11-09T21:44:32.424Z,9.10
2017-11-09T21:46:59.921Z,8.73
2017-11-09T21:49:27.436Z,9.87
2017-11-09T21:51:55.704Z,10.03
2017-11-09T21:54:24.001Z,10.10
2017-11-09T21:56:51.497Z,9.50
2017-11-09T21:59:19.026Z,9.20
2017-11-09T22:01:47.297Z,10.27
2017-11-09T22:04:14.816Z,10.07
2017-11-09T22:06:43.075Z,9.13
2017-11-09T22:09:10.588Z,9.60
2017-11-09T22:11:38.080Z,9.40
2017-11-09T22:14:05.604Z,11.40
2017-11-09T22:16:33.113Z,10.00
2017-11-09T22:19:01.388Z,11.77
2017-11-09T22:21:28.916Z,10.90
2017-11-09T22:23:56.426Z,11.60
2017-11-09T22:26:23.957Z,10.33
2017-11-09T22:28:52.224Z,11.90
2017-11-09T22:31:20.514Z,10.50
2017-11-09T22:33:48.014Z,12.63
2017-11-09T22:36:15.924Z,11.97
2017-11-09T22:38:43.821Z,12.80
2017-11-09T22:41:11.339Z,11.27
2017-11-09T22:43:39.612Z,12.20
2017-11-09T22:46:08.552Z,10.77
2017-11-09T22:48:37.569Z,12.70
2017-11-09T22:51:05.089Z,12.33
2017-11-09T22:53:32.600Z,11.40
2017-11-09T22:56:00.124Z,12.73
2017-11-09T22:58:28.057Z,12.03
2017-11-09T23:00:55.580Z,11.50
2017-11-09T23:03:23.079Z,11.40
2017-11-09T23:05:50.596Z,11.43
2017-11-09T23:08:18.097Z,10.73
2017-11-09T23:10:46.966Z,11.47
2017-11-09T23:13:14.463Z,11.80
2017-11-09T23:15:41.983Z,10.80
2017-11-09T23:18:09.487Z,11.90
2017-11-09T23:20:41.557Z,12.30
2017-11-09T23:23:11.400Z,10.53
2017-11-09T23:25:40.439Z,11.83
2017-11-09T23:28:08.484Z,11.27
2017-11-09T23:30:36.010Z,11.57
2017-11-09T23:33:03.512Z,11.27
2017-11-09T23:35:31.821Z,10.53
2017-11-09T23:38:00.665Z,10.97
2017-11-09T23:40:29.523Z,10.63
2017-11-09T23:42:57.041Z,11.67
2017-11-09T23:45:28.168Z,10.53
2017-11-09T23:47:56.458Z,11.67
2017-11-09T23:50:25.311Z,11.57
2017-11-09T23:52:52.829Z,11.57
2017-11-09T23:55:20.324Z,10.57
2017-11-09T23:57:47.849Z,10.20
